sensor_id;sensor_type;location;lat;lon;timestamp;temperature;humidity
20125;DHT22;10223;50.862;4.360;2023-04-24T00:01:59;9.50;99.90
20125;DHT22;10223;50.862;4.360;2023-04-24T00:04:26;9.50;99.90
20125;DHT22;10223;50.862;4.360;2023-04-24T00:06:53;9.50;99.90
20125;DHT22;10223;50.862;4.360;2023-04-24T00:09:22;9.60;99.90
20125;DHT22;10223;50.862;4.360;2023-04-24T00:11:51;9.70;99.90
20125;DHT22;10223;50.862;4.360;2023-04-24T00:14:18;9.60;99.90
20125;DHT22;10223;50.862;4.360;2023-04-24T00:16:45;9.60;99.90
20125;DHT22;10223;50.862;4.360;2023-04-24T00:19:11;9.60;99.90
20125;DHT22;10223;50.862;4.360;2023-04-24T00:21:39;9.60;99.90
20125;DHT22;10223;50.862;4.360;2023-04-24T00:24:06;9.60;99.90
20125;DHT22;10223;50.862;4.360;2023-04-24T00:26:34;9.50;99.90
20125;DHT22;10223;50.862;4.360;2023-04-24T00:29:02;9.50;99.90
20125;DHT22;10223;50.862;4.360;2023-04-24T00:31:29;9.50;99.90
20125;DHT22;10223;50.862;4.360;2023-04-24T00:33:57;9.50;99.90
20125;DHT22;10223;50.862;4.360;2023-04-24T00:36:24;9.40;99.90
20125;DHT22;10223;50.862;4.360;2023-04-24T00:38:52;9.30;99.90
20125;DHT22;10223;50.862;4.360;2023-04-24T00:41:19;9.30;99.90
20125;DHT22;10223;50.862;4.360;2023-04-24T00:43:46;9.40;99.90
20125;DHT22;10223;50.862;4.360;2023-04-24T00:46:14;9.40;99.90
20125;DHT22;10223;50.862;4.360;2023-04-24T00:48:43;9.40;99.90
20125;DHT22;10223;50.862;4.360;2023-04-24T00:51:10;9.40;99.90
20125;DHT22;10223;50.862;4.360;2023-04-24T00:53:37;9.30;99.90
20125;DHT22;10223;50.862;4.360;2023-04-24T00:56:04;9.30;99.90
20125;DHT22;10223;50.862;4.360;2023-04-24T00:58:32;9.30;99.90
20125;DHT22;10223;50.862;4.360;2023-04-24T01:00:59;9.40;99.90
20125;DHT22;10223;50.862;4.360;2023-04-24T01:03:29;9.40;99.90
20125;DHT22;10223;50.862;4.360;2023-04-24T01:05:57;9.30;99.90
20125;DHT22;10223;50.862;4.360;2023-04-24T01:08:24;9.30;99.90
20125;DHT22;10223;50.862;4.360;2023-04-24T01:10:52;9.30;99.90
20125;DHT22;10223;50.862;4.360;2023-04-24T01:13:20;9.30;99.90
20125;DHT22;10223;50.862;4.360;2023-04-24T01:15:47;9.30;99.90
20125;DHT22;10223;50.862;4.360;2023-04-24T01:18:14;9.30;99.90
20125;DHT22;10223;50.862;4.360;2023-04-24T01:20:43;9.20;99.90
20125;DHT22;10223;50.862;4.360;2023-04-24T01:23:13;9.10;99.90
20125;DHT22;10223;50.862;4.360;2023-04-24T01:25:41;9.20;99.90
20125;DHT22;10223;50.862;4.360;2023-04-24T01:28:08;9.10;99.90
20125;DHT22;10223;50.862;4.360;2023-04-24T01:30:35;9.00;99.90
20125;DHT22;10223;50.862;4.360;2023-04-24T01:33:02;9.00;99.90
20125;DHT22;10223;50.862;4.360;2023-04-24T01:35:29;8.90;99.90
20125;DHT22;10223;50.862;4.360;2023-04-24T01:37:56;8.90;99.90
20125;DHT22;10223;50.862;4.360;2023-04-24T01:40:24;8.90;99.90
20125;DHT22;10223;50.862;4.360;2023-04-24T01:42:51;8.90;99.90
20125;DHT22;10223;50.862;4.360;2023-04-24T01:45:18;9.00;99.90
20125;DHT22;10223;50.862;4.360;2023-04-24T01:47:45;9.10;99.90
20125;DHT22;10223;50.862;4.360;2023-04-24T01:50:12;9.10;99.90
20125;DHT22;10223;50.862;4.360;2023-04-24T01:52:39;9.10;99.90
20125;DHT22;10223;50.862;4.360;2023-04-24T01:55:07;9.10;99.90
20125;DHT22;10223;50.862;4.360;2023-04-24T01:57:36;9.00;99.90
20125;DHT22;10223;50.862;4.360;2023-04-24T02:00:04;9.10;99.90
20125;DHT22;10223;50.862;4.360;2023-04-24T02:02:32;9.10;99.90
20125;DHT22;10223;50.862;4.360;2023-04-24T02:04:59;9.10;99.90
20125;DHT22;10223;50.862;4.360;2023-04-24T02:07:26;9.20;99.90
20125;DHT22;10223;50.862;4.360;2023-04-24T02:09:53;9.10;99.90
20125;DHT22;10223;50.862;4.360;2023-04-24T02:12:20;9.00;99.90
20125;DHT22;10223;50.862;4.360;2023-04-24T02:14:49;9.10;99.90
20125;DHT22;10223;50.862;4.360;2023-04-24T02:17:16;9.10;99.90
20125;DHT22;10223;50.862;4.360;2023-04-24T02:19:44;9.10;99.90
20125;DHT22;10223;50.862;4.360;2023-04-24T02:22:11;9.10;99.90
20125;DHT22;10223;50.862;4.360;2023-04-24T02:24:38;9.10;99.90
20125;DHT22;10223;50.862;4.360;2023-04-24T02:27:05;9.10;99.90
20125;DHT22;10223;50.862;4.360;2023-04-24T02:29:32;9.10;99.90
20125;DHT22;10223;50.862;4.360;2023-04-24T02:32:01;9.20;99.90
20125;DHT22;10223;50.862;4.360;2023-04-24T02:34:27;9.20;99.90
20125;DHT22;10223;50.862;4.360;2023-04-24T02:36:54;9.20;99.90
20125;DHT22;10223;50.862;4.360;2023-04-24T02:39:21;9.20;99.90
20125;DHT22;10223;50.862;4.360;2023-04-24T02:41:48;9.20;99.90
20125;DHT22;10223;50.862;4.360;2023-04-24T02:44:16;9.20;99.90
20125;DHT22;10223;50.862;4.360;2023-04-24T02:46:43;9.10;99.90
20125;DHT22;10223;50.862;4.360;2023-04-24T02:49:12;9.00;99.90
20125;DHT22;10223;50.862;4.360;2023-04-24T02:51:38;9.00;99.90
20125;DHT22;10223;50.862;4.360;2023-04-24T02:54:07;9.00;99.90
20125;DHT22;10223;50.862;4.360;2023-04-24T02:56:34;8.90;99.90
20125;DHT22;10223;50.862;4.360;2023-04-24T02:59:01;9.00;99.90
20125;DHT22;10223;50.862;4.360;2023-04-24T03:01:28;9.00;99.90
20125;DHT22;10223;50.862;4.360;2023-04-24T03:03:55;8.90;99.90
20125;DHT22;10223;50.862;4.360;2023-04-24T03:06:23;8.90;99.90
20125;DHT22;10223;50.862;4.360;2023-04-24T03:08:50;8.90;99.90
20125;DHT22;10223;50.862;4.360;2023-04-24T03:11:17;8.80;99.90
20125;DHT22;10223;50.862;4.360;2023-04-24T03:13:43;8.80;99.90
20125;DHT22;10223;50.862;4.360;2023-04-24T03:16:10;8.80;99.90
20125;DHT22;10223;50.862;4.360;2023-04-24T03:18:37;8.80;99.90
20125;DHT22;10223;50.862;4.360;2023-04-24T03:21:04;8.80;99.90
20125;DHT22;10223;50.862;4.360;2023-04-24T03:23:32;8.80;99.90
20125;DHT22;10223;50.862;4.360;2023-04-24T03:25:59;8.90;99.90
20125;DHT22;10223;50.862;4.360;2023-04-24T03:28:27;8.80;99.90
20125;DHT22;10223;50.862;4.360;2023-04-24T03:30:54;8.70;99.90
20125;DHT22;10223;50.862;4.360;2023-04-24T03:33:21;8.70;99.90
20125;DHT22;10223;50.862;4.360;2023-04-24T03:35:48;8.70;99.90
20125;DHT22;10223;50.862;4.360;2023-04-24T03:38:15;8.70;99.90
20125;DHT22;10223;50.862;4.360;2023-04-24T03:40:43;8.80;99.90
20125;DHT22;10223;50.862;4.360;2023-04-24T03:43:10;8.80;99.90
20125;DHT22;10223;50.862;4.360;2023-04-24T03:45:37;8.80;99.90
20125;DHT22;10223;50.862;4.360;2023-04-24T03:48:04;8.80;99.90
20125;DHT22;10223;50.862;4.360;2023-04-24T03:50:30;8.80;99.90
20125;DHT22;10223;50.862;4.360;2023-04-24T03:52:57;8.80;99.90
20125;DHT22;10223;50.862;4.360;2023-04-24T03:55:24;8.80;99.90
20125;DHT22;10223;50.862;4.360;2023-04-24T03:57:52;8.80;99.90
20125;DHT22;10223;50.862;4.360;2023-04-24T04:00:19;8.90;99.90
20125;DHT22;10223;50.862;4.360;2023-04-24T04:02:46;9.00;99.90
20125;DHT22;10223;50.862;4.360;2023-04-24T04:05:13;8.90;99.90
20125;DHT22;10223;50.862;4.360;2023-04-24T04:07:40;9.00;99.90
20125;DHT22;10223;50.862;4.360;2023-04-24T04:10:07;9.00;99.90
20125;DHT22;10223;50.862;4.360;2023-04-24T04:12:34;9.10;99.90
20125;DHT22;10223;50.862;4.360;2023-04-24T04:15:03;9.10;99.90
20125;DHT22;10223;50.862;4.360;2023-04-24T04:17:31;9.10;99.90
20125;DHT22;10223;50.862;4.360;2023-04-24T04:19:58;9.20;99.90
20125;DHT22;10223;50.862;4.360;2023-04-24T04:22:25;9.20;99.90
20125;DHT22;10223;50.862;4.360;2023-04-24T04:24:52;9.10;99.90
20125;DHT22;10223;50.862;4.360;2023-04-24T04:27:19;9.10;99.90
20125;DHT22;10223;50.862;4.360;2023-04-24T04:29:46;9.00;99.90
20125;DHT22;10223;50.862;4.360;2023-04-24T04:32:15;9.10;99.90
20125;DHT22;10223;50.862;4.360;2023-04-24T04:34:42;9.10;99.90
20125;DHT22;10223;50.862;4.360;2023-04-24T04:37:10;9.10;99.90
20125;DHT22;10223;50.862;4.360;2023-04-24T04:39:38;9.10;99.90
20125;DHT22;10223;50.862;4.360;2023-04-24T04:42:05;9.10;99.90
20125;DHT22;10223;50.862;4.360;2023-04-24T04:44:32;9.10;99.90
20125;DHT22;10223;50.862;4.360;2023-04-24T04:47:01;9.00;99.90
20125;DHT22;10223;50.862;4.360;2023-04-24T04:49:32;9.00;99.90
20125;DHT22;10223;50.862;4.360;2023-04-24T04:51:59;9.00;99.90
20125;DHT22;10223;50.862;4.360;2023-04-24T04:54:26;9.00;99.90
20125;DHT22;10223;50.862;4.360;2023-04-24T04:56:53;9.00;99.90
20125;DHT22;10223;50.862;4.360;2023-04-24T04:59:20;9.00;99.90
20125;DHT22;10223;50.862;4.360;2023-04-24T05:01:47;9.00;99.90
20125;DHT22;10223;50.862;4.360;2023-04-24T05:04:14;9.00;99.90
20125;DHT22;10223;50.862;4.360;2023-04-24T05:06:42;9.00;99.90
20125;DHT22;10223;50.862;4.360;2023-04-24T05:09:09;8.90;99.90
20125;DHT22;10223;50.862;4.360;2023-04-24T05:11:36;9.00;99.90
20125;DHT22;10223;50.862;4.360;2023-04-24T05:14:02;9.00;99.90
20125;DHT22;10223;50.862;4.360;2023-04-24T05:16:29;9.00;99.90
20125;DHT22;10223;50.862;4.360;2023-04-24T05:18:57;8.90;99.90
20125;DHT22;10223;50.862;4.360;2023-04-24T05:21:24;8.90;99.90
20125;DHT22;10223;50.862;4.360;2023-04-24T05:23:52;9.00;99.90
20125;DHT22;10223;50.862;4.360;2023-04-24T05:26:19;9.00;99.90
20125;DHT22;10223;50.862;4.360;2023-04-24T05:28:46;8.90;99.90
20125;DHT22;10223;50.862;4.360;2023-04-24T05:31:12;9.00;99.90
20125;DHT22;10223;50.862;4.360;2023-04-24T05:33:39;9.00;99.90
20125;DHT22;10223;50.862;4.360;2023-04-24T05:36:06;9.10;99.90
20125;DHT22;10223;50.862;4.360;2023-04-24T05:38:33;9.00;99.90
20125;DHT22;10223;50.862;4.360;2023-04-24T05:41:02;9.00;99.90
20125;DHT22;10223;50.862;4.360;2023-04-24T05:43:28;9.00;99.90
20125;DHT22;10223;50.862;4.360;2023-04-24T05:45:55;9.00;99.90
20125;DHT22;10223;50.862;4.360;2023-04-24T05:48:22;8.90;99.90
20125;DHT22;10223;50.862;4.360;2023-04-24T05:50:49;8.90;99.90
20125;DHT22;10223;50.862;4.360;2023-04-24T05:53:17;9.00;99.90
20125;DHT22;10223;50.862;4.360;2023-04-24T05:55:45;9.00;99.90
20125;DHT22;10223;50.862;4.360;2023-04-24T05:58:13;8.90;99.90
20125;DHT22;10223;50.862;4.360;2023-04-24T06:00:40;8.80;99.90
20125;DHT22;10223;50.862;4.360;2023-04-24T06:03:09;8.90;99.90
20125;DHT22;10223;50.862;4.360;2023-04-24T06:05:36;8.80;99.90
20125;DHT22;10223;50.862;4.360;2023-04-24T06:08:03;8.80;99.90
20125;DHT22;10223;50.862;4.360;2023-04-24T06:10:30;8.80;99.90
20125;DHT22;10223;50.862;4.360;2023-04-24T06:12:57;8.80;99.90
20125;DHT22;10223;50.862;4.360;2023-04-24T06:15:28;8.80;99.90
20125;DHT22;10223;50.862;4.360;2023-04-24T06:17:55;8.70;99.90
20125;DHT22;10223;50.862;4.360;2023-04-24T06:20:23;8.70;99.90
20125;DHT22;10223;50.862;4.360;2023-04-24T06:22:49;8.80;99.90
20125;DHT22;10223;50.862;4.360;2023-04-24T06:25:16;8.60;99.90
20125;DHT22;10223;50.862;4.360;2023-04-24T06:27:43;8.70;99.90
20125;DHT22;10223;50.862;4.360;2023-04-24T06:30:10;8.70;99.90
20125;DHT22;10223;50.862;4.360;2023-04-24T06:32:39;8.70;99.90
20125;DHT22;10223;50.862;4.360;2023-04-24T06:35:07;8.70;99.90
20125;DHT22;10223;50.862;4.360;2023-04-24T06:37:35;8.70;99.90
20125;DHT22;10223;50.862;4.360;2023-04-24T06:40:02;8.80;99.90
20125;DHT22;10223;50.862;4.360;2023-04-24T06:42:29;8.90;99.90
20125;DHT22;10223;50.862;4.360;2023-04-24T06:44:56;8.90;99.90
20125;DHT22;10223;50.862;4.360;2023-04-24T06:47:23;9.00;99.90
20125;DHT22;10223;50.862;4.360;2023-04-24T06:49:51;9.10;99.90
20125;DHT22;10223;50.862;4.360;2023-04-24T06:52:18;9.20;99.90
20125;DHT22;10223;50.862;4.360;2023-04-24T06:54:45;9.20;99.90
20125;DHT22;10223;50.862;4.360;2023-04-24T06:57:11;9.20;99.90
20125;DHT22;10223;50.862;4.360;2023-04-24T06:59:38;9.20;99.90
20125;DHT22;10223;50.862;4.360;2023-04-24T07:02:05;9.20;99.90
20125;DHT22;10223;50.862;4.360;2023-04-24T07:04:32;9.20;99.90
20125;DHT22;10223;50.862;4.360;2023-04-24T07:07:01;9.10;99.90
20125;DHT22;10223;50.862;4.360;2023-04-24T07:09:28;9.20;99.90
20125;DHT22;10223;50.862;4.360;2023-04-24T07:11:55;9.30;99.90
20125;DHT22;10223;50.862;4.360;2023-04-24T07:14:22;9.30;99.90
20125;DHT22;10223;50.862;4.360;2023-04-24T07:16:49;9.20;99.90
20125;DHT22;10223;50.862;4.360;2023-04-24T07:19:16;9.20;99.90
20125;DHT22;10223;50.862;4.360;2023-04-24T07:21:43;9.30;99.90
20125;DHT22;10223;50.862;4.360;2023-04-24T07:24:12;9.40;99.90
20125;DHT22;10223;50.862;4.360;2023-04-24T07:26:38;9.50;99.90
20125;DHT22;10223;50.862;4.360;2023-04-24T07:29:06;9.50;99.90
20125;DHT22;10223;50.862;4.360;2023-04-24T07:31:33;9.50;99.90
20125;DHT22;10223;50.862;4.360;2023-04-24T07:34:00;9.60;99.90
20125;DHT22;10223;50.862;4.360;2023-04-24T07:36:27;9.50;99.90
20125;DHT22;10223;50.862;4.360;2023-04-24T07:38:55;9.60;99.90
20125;DHT22;10223;50.862;4.360;2023-04-24T07:41:24;9.60;99.90
20125;DHT22;10223;50.862;4.360;2023-04-24T07:43:51;9.80;99.90
20125;DHT22;10223;50.862;4.360;2023-04-24T07:46:18;9.70;99.90
20125;DHT22;10223;50.862;4.360;2023-04-24T07:48:45;9.80;99.90
20125;DHT22;10223;50.862;4.360;2023-04-24T07:51:14;9.80;99.90
20125;DHT22;10223;50.862;4.360;2023-04-24T07:53:41;9.80;99.90
20125;DHT22;10223;50.862;4.360;2023-04-24T07:56:08;9.80;99.90
20125;DHT22;10223;50.862;4.360;2023-04-24T07:58:36;9.60;99.90
20125;DHT22;10223;50.862;4.360;2023-04-24T08:01:03;9.70;99.90
20125;DHT22;10223;50.862;4.360;2023-04-24T08:03:30;9.70;99.90
20125;DHT22;10223;50.862;4.360;2023-04-24T08:05:57;10.00;99.90
20125;DHT22;10223;50.862;4.360;2023-04-24T08:08:25;10.00;99.90
20125;DHT22;10223;50.862;4.360;2023-04-24T08:10:52;10.10;99.90
20125;DHT22;10223;50.862;4.360;2023-04-24T08:13:19;9.90;99.90
20125;DHT22;10223;50.862;4.360;2023-04-24T08:15:47;9.80;99.90
20125;DHT22;10223;50.862;4.360;2023-04-24T08:18:14;9.80;99.90
20125;DHT22;10223;50.862;4.360;2023-04-24T08:20:41;9.90;99.90
20125;DHT22;10223;50.862;4.360;2023-04-24T08:23:08;9.90;99.90
20125;DHT22;10223;50.862;4.360;2023-04-24T08:25:35;10.00;99.90
20125;DHT22;10223;50.862;4.360;2023-04-24T08:28:02;10.40;99.90
20125;DHT22;10223;50.862;4.360;2023-04-24T08:30:29;10.30;99.90
20125;DHT22;10223;50.862;4.360;2023-04-24T08:32:58;10.30;99.90
20125;DHT22;10223;50.862;4.360;2023-04-24T08:35:25;10.40;99.90
20125;DHT22;10223;50.862;4.360;2023-04-24T08:37:52;10.30;99.90
20125;DHT22;10223;50.862;4.360;2023-04-24T08:40:25;10.30;99.90
20125;DHT22;10223;50.862;4.360;2023-04-24T08:42:54;10.50;99.90
20125;DHT22;10223;50.862;4.360;2023-04-24T08:45:21;10.50;99.90
20125;DHT22;10223;50.862;4.360;2023-04-24T08:47:49;10.60;99.90
20125;DHT22;10223;50.862;4.360;2023-04-24T08:50:18;10.90;99.90
20125;DHT22;10223;50.862;4.360;2023-04-24T08:52:45;11.10;99.90
20125;DHT22;10223;50.862;4.360;2023-04-24T08:55:11;11.50;99.90
20125;DHT22;10223;50.862;4.360;2023-04-24T08:57:40;11.70;99.90
20125;DHT22;10223;50.862;4.360;2023-04-24T09:00:11;11.90;99.90
20125;DHT22;10223;50.862;4.360;2023-04-24T09:02:41;11.90;99.90
20125;DHT22;10223;50.862;4.360;2023-04-24T09:05:08;12.00;99.90
20125;DHT22;10223;50.862;4.360;2023-04-24T09:07:38;11.90;99.90
20125;DHT22;10223;50.862;4.360;2023-04-24T09:10:07;11.70;99.90
20125;DHT22;10223;50.862;4.360;2023-04-24T09:12:34;11.90;99.90
20125;DHT22;10223;50.862;4.360;2023-04-24T09:15:02;12.00;99.90
20125;DHT22;10223;50.862;4.360;2023-04-24T09:17:30;11.90;99.90
20125;DHT22;10223;50.862;4.360;2023-04-24T09:19:57;11.90;99.90
20125;DHT22;10223;50.862;4.360;2023-04-24T09:22:24;12.20;99.90
20125;DHT22;10223;50.862;4.360;2023-04-24T09:25:02;12.60;99.90
20125;DHT22;10223;50.862;4.360;2023-04-24T09:27:29;12.50;99.90
20125;DHT22;10223;50.862;4.360;2023-04-24T09:29:57;12.10;99.90
20125;DHT22;10223;50.862;4.360;2023-04-24T09:32:25;11.80;99.90
20125;DHT22;10223;50.862;4.360;2023-04-24T09:35:09;11.70;99.90
20125;DHT22;10223;50.862;4.360;2023-04-24T09:37:37;11.40;99.90
20125;DHT22;10223;50.862;4.360;2023-04-24T09:40:12;11.40;99.90
20125;DHT22;10223;50.862;4.360;2023-04-24T09:42:42;11.30;99.90
20125;DHT22;10223;50.862;4.360;2023-04-24T09:45:10;11.30;99.90
20125;DHT22;10223;50.862;4.360;2023-04-24T09:47:37;11.60;99.90
20125;DHT22;10223;50.862;4.360;2023-04-24T09:50:12;11.90;99.90
20125;DHT22;10223;50.862;4.360;2023-04-24T09:52:41;12.00;99.90
20125;DHT22;10223;50.862;4.360;2023-04-24T09:55:16;11.90;99.90
20125;DHT22;10223;50.862;4.360;2023-04-24T09:57:50;11.70;99.90
20125;DHT22;10223;50.862;4.360;2023-04-24T10:00:20;11.70;99.90
20125;DHT22;10223;50.862;4.360;2023-04-24T10:02:50;11.90;99.90
20125;DHT22;10223;50.862;4.360;2023-04-24T10:05:18;12.10;99.90
20125;DHT22;10223;50.862;4.360;2023-04-24T10:07:46;12.20;99.90
20125;DHT22;10223;50.862;4.360;2023-04-24T10:10:14;12.30;99.90
20125;DHT22;10223;50.862;4.360;2023-04-24T10:12:42;12.30;99.90
20125;DHT22;10223;50.862;4.360;2023-04-24T10:15:12;12.20;99.90
20125;DHT22;10223;50.862;4.360;2023-04-24T10:17:40;12.30;99.90
20125;DHT22;10223;50.862;4.360;2023-04-24T10:20:08;12.30;99.90
20125;DHT22;10223;50.862;4.360;2023-04-24T10:22:36;12.20;99.90
20125;DHT22;10223;50.862;4.360;2023-04-24T10:25:04;11.70;99.90
20125;DHT22;10223;50.862;4.360;2023-04-24T10:27:34;11.50;99.90
20125;DHT22;10223;50.862;4.360;2023-04-24T10:30:02;11.40;99.90
20125;DHT22;10223;50.862;4.360;2023-04-24T10:32:29;11.60;99.90
20125;DHT22;10223;50.862;4.360;2023-04-24T10:34:56;11.90;99.90
20125;DHT22;10223;50.862;4.360;2023-04-24T10:37:24;12.40;99.90
20125;DHT22;10223;50.862;4.360;2023-04-24T10:39:52;12.50;99.90
20125;DHT22;10223;50.862;4.360;2023-04-24T10:42:20;12.60;99.90
20125;DHT22;10223;50.862;4.360;2023-04-24T10:44:48;12.50;99.90
20125;DHT22;10223;50.862;4.360;2023-04-24T10:47:16;12.50;99.90
20125;DHT22;10223;50.862;4.360;2023-04-24T10:49:42;12.40;99.90
20125;DHT22;10223;50.862;4.360;2023-04-24T10:52:10;12.50;99.90
20125;DHT22;10223;50.862;4.360;2023-04-24T10:54:42;12.50;99.90
20125;DHT22;10223;50.862;4.360;2023-04-24T10:57:27;12.40;99.90
20125;DHT22;10223;50.862;4.360;2023-04-24T11:00:19;12.30;99.90
20125;DHT22;10223;50.862;4.360;2023-04-24T11:02:47;12.20;99.90
20125;DHT22;10223;50.862;4.360;2023-04-24T11:05:19;12.00;99.90
20125;DHT22;10223;50.862;4.360;2023-04-24T11:08:11;12.10;99.90
20125;DHT22;10223;50.862;4.360;2023-04-24T11:10:44;12.00;99.90
20125;DHT22;10223;50.862;4.360;2023-04-24T11:13:14;12.10;99.90
20125;DHT22;10223;50.862;4.360;2023-04-24T11:15:43;12.00;99.90
20125;DHT22;10223;50.862;4.360;2023-04-24T11:18:13;12.00;99.90
20125;DHT22;10223;50.862;4.360;2023-04-24T11:20:42;12.20;99.90
20125;DHT22;10223;50.862;4.360;2023-04-24T11:23:12;12.20;99.90
20125;DHT22;10223;50.862;4.360;2023-04-24T11:25:39;12.40;99.90
20125;DHT22;10223;50.862;4.360;2023-04-24T11:28:07;12.50;99.90
20125;DHT22;10223;50.862;4.360;2023-04-24T11:30:42;12.60;99.90
20125;DHT22;10223;50.862;4.360;2023-04-24T11:33:09;12.50;99.90
20125;DHT22;10223;50.862;4.360;2023-04-24T11:35:40;12.50;99.90
20125;DHT22;10223;50.862;4.360;2023-04-24T11:38:07;12.60;99.90
20125;DHT22;10223;50.862;4.360;2023-04-24T11:40:34;12.70;99.90
20125;DHT22;10223;50.862;4.360;2023-04-24T11:43:01;12.70;99.90
20125;DHT22;10223;50.862;4.360;2023-04-24T11:45:30;13.00;99.90
20125;DHT22;10223;50.862;4.360;2023-04-24T11:47:58;13.20;99.90
20125;DHT22;10223;50.862;4.360;2023-04-24T11:50:26;13.10;99.90
20125;DHT22;10223;50.862;4.360;2023-04-24T11:52:55;13.20;99.90
20125;DHT22;10223;50.862;4.360;2023-04-24T11:55:27;13.30;99.90
20125;DHT22;10223;50.862;4.360;2023-04-24T11:57:55;13.30;99.90
20125;DHT22;10223;50.862;4.360;2023-04-24T12:00:24;13.60;99.90
20125;DHT22;10223;50.862;4.360;2023-04-24T12:03:02;13.70;99.90
20125;DHT22;10223;50.862;4.360;2023-04-24T12:05:31;13.70;99.90
20125;DHT22;10223;50.862;4.360;2023-04-24T12:07:59;13.70;99.90
20125;DHT22;10223;50.862;4.360;2023-04-24T12:10:27;13.70;99.90
20125;DHT22;10223;50.862;4.360;2023-04-24T12:12:56;13.60;99.90
20125;DHT22;10223;50.862;4.360;2023-04-24T12:15:24;13.70;99.90
20125;DHT22;10223;50.862;4.360;2023-04-24T12:17:52;14.00;99.90
20125;DHT22;10223;50.862;4.360;2023-04-24T12:20:24;14.40;99.90
20125;DHT22;10223;50.862;4.360;2023-04-24T12:22:54;14.30;99.90
20125;DHT22;10223;50.862;4.360;2023-04-24T12:25:22;14.40;99.90
20125;DHT22;10223;50.862;4.360;2023-04-24T12:27:53;14.40;99.90
20125;DHT22;10223;50.862;4.360;2023-04-24T12:30:21;14.30;99.90
20125;DHT22;10223;50.862;4.360;2023-04-24T12:32:49;14.30;99.90
20125;DHT22;10223;50.862;4.360;2023-04-24T12:35:20;14.50;99.90
20125;DHT22;10223;50.862;4.360;2023-04-24T12:37:47;14.80;99.90
20125;DHT22;10223;50.862;4.360;2023-04-24T12:40:16;14.80;99.90
20125;DHT22;10223;50.862;4.360;2023-04-24T12:42:44;14.70;99.90
20125;DHT22;10223;50.862;4.360;2023-04-24T12:45:11;14.30;99.90
20125;DHT22;10223;50.862;4.360;2023-04-24T12:47:39;14.40;99.90
20125;DHT22;10223;50.862;4.360;2023-04-24T12:50:07;14.50;99.90
20125;DHT22;10223;50.862;4.360;2023-04-24T12:52:35;15.10;99.90
20125;DHT22;10223;50.862;4.360;2023-04-24T12:55:02;15.10;99.90
20125;DHT22;10223;50.862;4.360;2023-04-24T12:57:31;15.30;99.90
20125;DHT22;10223;50.862;4.360;2023-04-24T12:59:59;15.60;99.90
20125;DHT22;10223;50.862;4.360;2023-04-24T13:02:27;15.80;99.90
20125;DHT22;10223;50.862;4.360;2023-04-24T13:04:55;16.40;99.90
20125;DHT22;10223;50.862;4.360;2023-04-24T13:07:22;16.90;99.90
20125;DHT22;10223;50.862;4.360;2023-04-24T13:09:49;16.60;99.90
20125;DHT22;10223;50.862;4.360;2023-04-24T13:12:17;16.20;99.90
20125;DHT22;10223;50.862;4.360;2023-04-24T13:14:45;16.00;99.90
20125;DHT22;10223;50.862;4.360;2023-04-24T13:17:12;15.40;99.90
20125;DHT22;10223;50.862;4.360;2023-04-24T13:19:41;15.20;99.90
20125;DHT22;10223;50.862;4.360;2023-04-24T13:22:09;15.10;99.90
20125;DHT22;10223;50.862;4.360;2023-04-24T13:24:37;15.10;99.90
20125;DHT22;10223;50.862;4.360;2023-04-24T13:27:05;14.60;99.90
20125;DHT22;10223;50.862;4.360;2023-04-24T13:29:32;14.40;99.90
20125;DHT22;10223;50.862;4.360;2023-04-24T13:32:00;14.40;99.90
20125;DHT22;10223;50.862;4.360;2023-04-24T13:34:27;14.50;99.90
20125;DHT22;10223;50.862;4.360;2023-04-24T13:36:56;14.90;99.90
20125;DHT22;10223;50.862;4.360;2023-04-24T13:39:24;15.00;99.90
20125;DHT22;10223;50.862;4.360;2023-04-24T13:41:51;15.50;99.90
20125;DHT22;10223;50.862;4.360;2023-04-24T13:44:18;15.50;99.90
20125;DHT22;10223;50.862;4.360;2023-04-24T13:46:47;15.10;99.90
20125;DHT22;10223;50.862;4.360;2023-04-24T13:49:16;14.80;99.90
20125;DHT22;10223;50.862;4.360;2023-04-24T13:51:43;14.20;99.90
20125;DHT22;10223;50.862;4.360;2023-04-24T13:54:11;14.00;99.90
20125;DHT22;10223;50.862;4.360;2023-04-24T13:56:39;14.40;99.90
20125;DHT22;10223;50.862;4.360;2023-04-24T13:59:06;15.00;99.90
20125;DHT22;10223;50.862;4.360;2023-04-24T14:01:33;16.80;99.90
20125;DHT22;10223;50.862;4.360;2023-04-24T14:04:00;17.60;99.90
20125;DHT22;10223;50.862;4.360;2023-04-24T14:06:28;18.20;99.90
20125;DHT22;10223;50.862;4.360;2023-04-24T14:08:55;18.30;99.90
20125;DHT22;10223;50.862;4.360;2023-04-24T14:11:21;17.50;99.90
20125;DHT22;10223;50.862;4.360;2023-04-24T14:13:49;16.80;99.90
20125;DHT22;10223;50.862;4.360;2023-04-24T14:16:16;16.20;99.90
20125;DHT22;10223;50.862;4.360;2023-04-24T14:18:43;16.30;99.90
20125;DHT22;10223;50.862;4.360;2023-04-24T14:21:10;16.10;99.90
20125;DHT22;10223;50.862;4.360;2023-04-24T14:23:38;15.80;99.90
20125;DHT22;10223;50.862;4.360;2023-04-24T14:26:05;15.50;99.90
20125;DHT22;10223;50.862;4.360;2023-04-24T14:28:32;15.20;99.90
20125;DHT22;10223;50.862;4.360;2023-04-24T14:30:59;15.10;99.90
20125;DHT22;10223;50.862;4.360;2023-04-24T14:33:26;15.00;99.90
20125;DHT22;10223;50.862;4.360;2023-04-24T14:35:53;14.70;99.90
20125;DHT22;10223;50.862;4.360;2023-04-24T14:38:20;14.30;99.90
20125;DHT22;10223;50.862;4.360;2023-04-24T14:40:48;14.20;99.90
20125;DHT22;10223;50.862;4.360;2023-04-24T14:43:15;13.90;99.90
20125;DHT22;10223;50.862;4.360;2023-04-24T14:45:42;13.90;99.90
20125;DHT22;10223;50.862;4.360;2023-04-24T14:48:09;14.00;99.90
20125;DHT22;10223;50.862;4.360;2023-04-24T14:50:36;13.90;99.90
20125;DHT22;10223;50.862;4.360;2023-04-24T14:53:03;13.90;99.90
20125;DHT22;10223;50.862;4.360;2023-04-24T14:55:30;13.80;99.90
20125;DHT22;10223;50.862;4.360;2023-04-24T14:58:00;13.80;99.90
20125;DHT22;10223;50.862;4.360;2023-04-24T15:00:27;13.80;99.90
20125;DHT22;10223;50.862;4.360;2023-04-24T15:02:54;13.50;99.90
20125;DHT22;10223;50.862;4.360;2023-04-24T15:05:20;13.60;99.90
20125;DHT22;10223;50.862;4.360;2023-04-24T15:07:48;13.70;99.90
20125;DHT22;10223;50.862;4.360;2023-04-24T15:10:15;14.00;99.90
20125;DHT22;10223;50.862;4.360;2023-04-24T15:12:43;14.10;99.90
20125;DHT22;10223;50.862;4.360;2023-04-24T15:15:11;14.00;99.90
20125;DHT22;10223;50.862;4.360;2023-04-24T15:17:38;13.70;99.90
20125;DHT22;10223;50.862;4.360;2023-04-24T15:20:06;13.60;99.90
20125;DHT22;10223;50.862;4.360;2023-04-24T15:22:33;13.40;99.90
20125;DHT22;10223;50.862;4.360;2023-04-24T15:25:00;13.30;99.90
20125;DHT22;10223;50.862;4.360;2023-04-24T15:27:33;13.50;99.90
20125;DHT22;10223;50.862;4.360;2023-04-24T15:30:06;13.60;99.90
20125;DHT22;10223;50.862;4.360;2023-04-24T15:32:35;13.50;99.90
20125;DHT22;10223;50.862;4.360;2023-04-24T15:35:02;13.60;99.90
20125;DHT22;10223;50.862;4.360;2023-04-24T15:37:29;13.40;99.90
20125;DHT22;10223;50.862;4.360;2023-04-24T15:39:56;13.50;99.90
20125;DHT22;10223;50.862;4.360;2023-04-24T15:42:22;13.60;99.90
20125;DHT22;10223;50.862;4.360;2023-04-24T15:44:49;13.40;99.90